Time;durP1;ratioP1;P1;durP2;ratioP2;P2;SDS_P1;SDS_P2;PMS_P1;PMS_P2;Temp;Humidity;BMP_temperature;BMP_pressure;BME280_temperature;BME280_humidity;BME280_pressure;Samples;Min_cycle;Max_cycle;Signal;HPM_P1;HPM_P2
2022/07/11 00:01:19;;;;;;;7.20;1.93;;;16.50;1.00;;;;;;6354685;22;20417;-81
2022/07/11 00:03:47;;;;;;;7.70;2.00;;;16.50;1.00;;;;;;6324454;22;20495;-81
2022/07/11 00:06:14;;;;;;;10.90;2.50;;;16.50;1.00;;;;;;6353711;22;20451;-81
2022/07/11 00:08:45;;;;;;;9.30;2.27;;;16.50;1.00;;;;;;6356398;22;20413;-80
2022/07/11 00:11:12;;;;;;;6.40;1.90;;;16.40;1.00;;;;;;6357062;22;20525;-81
2022/07/11 00:13:47;;;;;;;8.73;1.73;;;16.40;1.00;;;;;;6354924;22;20417;-83
2022/07/11 00:16:18;;;;;;;7.53;1.97;;;16.40;1.00;;;;;;6353168;22;21005;-81
2022/07/11 00:18:45;;;;;;;9.33;2.10;;;16.40;1.00;;;;;;6353070;22;20429;-82
2022/07/11 00:21:19;;;;;;;8.10;2.30;;;16.50;1.00;;;;;;6354636;22;20887;-81
2022/07/11 00:23:46;;;;;;;8.17;2.13;;;16.50;1.00;;;;;;6350733;22;20523;-82
2022/07/11 00:26:13;;;;;;;8.00;2.10;;;16.40;1.00;;;;;;6350193;22;20421;-82
2022/07/11 00:28:40;;;;;;;8.00;1.97;;;16.30;1.00;;;;;;6346595;22;20464;-82
2022/07/11 00:31:08;;;;;;;10.20;2.10;;;16.20;1.00;;;;;;6350085;22;20403;-82
2022/07/11 00:33:37;;;;;;;8.53;1.40;;;16.20;1.00;;;;;;6347911;22;20436;-82
2022/07/11 00:36:04;;;;;;;11.80;2.33;;;16.00;1.00;;;;;;6348960;22;20425;-82
2022/07/11 00:38:31;;;;;;;7.30;1.43;;;15.90;1.00;;;;;;6347414;22;20755;-82
2022/07/11 00:40:58;;;;;;;10.73;2.27;;;15.90;1.00;;;;;;6349845;22;20467;-82
2022/07/11 00:43:36;;;;;;;7.97;2.10;;;15.80;1.00;;;;;;6355079;22;21196;-81
2022/07/11 00:46:03;;;;;;;8.33;1.83;;;15.70;1.00;;;;;;6353281;22;20433;-82
2022/07/11 00:48:39;;;;;;;9.50;1.87;;;15.70;1.00;;;;;;6352071;22;20496;-82
2022/07/11 00:51:08;;;;;;;8.40;2.10;;;15.60;1.00;;;;;;6353897;22;20425;-83
2022/07/11 00:53:37;;;;;;;7.00;1.70;;;15.50;1.00;;;;;;6353794;22;20385;-82
2022/07/11 00:56:04;;;;;;;12.07;2.60;;;15.50;1.00;;;;;;6354599;22;20428;-81
2022/07/11 00:58:36;;;;;;;9.60;1.87;;;15.40;1.00;;;;;;6353167;22;20389;-83
2022/07/11 01:01:04;;;;;;;12.50;2.60;;;15.50;1.00;;;;;;6354704;22;20967;-82
2022/07/11 01:03:39;;;;;;;6.73;1.93;;;15.40;1.00;;;;;;6355859;22;20389;-83
2022/07/11 01:06:08;;;;;;;10.60;2.30;;;15.40;1.00;;;;;;6357789;22;20397;-80
2022/07/11 01:08:37;;;;;;;7.83;1.80;;;15.40;1.00;;;;;;6356451;22;20438;-82
2022/07/11 01:11:05;;;;;;;8.90;3.10;;;15.30;1.00;;;;;;6356682;22;21192;-83
2022/07/11 01:13:36;;;;;;;8.93;2.30;;;15.20;1.00;;;;;;6355626;22;20458;-82
2022/07/11 01:16:16;;;;;;;9.20;1.97;;;15.20;1.00;;;;;;6354643;22;20421;-82
2022/07/11 01:18:45;;;;;;;9.00;2.07;;;15.20;1.00;;;;;;6353244;22;20409;-82
2022/07/11 01:21:23;;;;;;;10.70;2.20;;;15.10;1.00;;;;;;6355938;22;20591;-82
2022/07/11 01:23:57;;;;;;;9.03;2.40;;;15.10;1.00;;;;;;6352503;22;20405;-84
2022/07/11 01:26:25;;;;;;;8.50;2.10;;;15.10;1.00;;;;;;6354606;22;20425;-83
2022/07/11 01:29:05;;;;;;;9.50;2.33;;;15.00;1.00;;;;;;6354463;22;20380;-80
2022/07/11 01:31:36;;;;;;;7.20;1.70;;;15.00;1.00;;;;;;6354335;22;20407;-82
2022/07/11 01:34:03;;;;;;;8.73;2.10;;;15.00;1.00;;;;;;6355272;22;20405;-81
2022/07/11 01:36:31;;;;;;;9.67;3.00;;;14.90;1.00;;;;;;6354183;22;20401;-81
2022/07/11 01:38:59;;;;;;;8.30;2.37;;;14.90;1.00;;;;;;6355779;22;20419;-82
2022/07/11 01:41:26;;;;;;;9.53;2.37;;;14.80;1.00;;;;;;6354460;22;20826;-83
2022/07/11 01:43:56;;;;;;;8.60;2.47;;;14.80;1.00;;;;;;6355040;22;20437;-82
2022/07/11 01:46:23;;;;;;;9.87;2.83;;;14.80;1.00;;;;;;6356292;22;20452;-82
2022/07/11 01:48:50;;;;;;;7.10;2.37;;;14.70;1.00;;;;;;6355506;22;20491;-81
2022/07/11 01:51:17;;;;;;;8.00;2.47;;;14.70;1.00;;;;;;6356992;22;20483;-82
2022/07/11 01:53:44;;;;;;;12.10;2.83;;;14.70;1.00;;;;;;6355573;22;20451;-83
2022/07/11 01:56:17;;;;;;;7.10;2.40;;;14.70;1.00;;;;;;6356536;22;20459;-81
2022/07/11 01:58:44;;;;;;;7.90;2.60;;;14.60;1.00;;;;;;6354707;22;20504;-82
2022/07/11 02:01:15;;;;;;;8.00;2.50;;;14.60;1.00;;;;;;6354275;22;20425;-82
2022/07/11 02:03:42;;;;;;;8.17;2.43;;;14.50;1.00;;;;;;6354684;22;20445;-83
2022/07/11 02:06:09;;;;;;;9.93;2.50;;;14.50;1.00;;;;;;6355268;22;20975;-83
2022/07/11 02:08:37;;;;;;;10.33;1.90;;;14.40;1.00;;;;;;6352747;22;20504;-82
2022/07/11 02:11:05;;;;;;;9.90;2.20;;;14.40;1.00;;;;;;6353642;22;20504;-82
2022/07/11 02:13:37;;;;;;;12.50;3.03;;;14.40;1.00;;;;;;6353018;22;20377;-81
2022/07/11 02:16:06;;;;;;;9.70;2.33;;;14.30;1.00;;;;;;6355445;22;20426;-80
2022/07/11 02:18:36;;;;;;;9.83;2.53;;;14.20;1.00;;;;;;6354322;22;20401;-80
2022/07/11 02:21:03;;;;;;;13.03;2.17;;;14.20;1.00;;;;;;6355785;22;20504;-83
2022/07/11 02:23:30;;;;;;;10.00;2.20;;;14.20;1.00;;;;;;6353799;22;20452;-81
2022/07/11 02:25:57;;;;;;;8.13;2.30;;;14.20;1.00;;;;;;6355207;22;20433;-82
2022/07/11 02:28:26;;;;;;;8.00;2.60;;;14.10;1.00;;;;;;6354742;22;20400;-80
2022/07/11 02:30:56;;;;;;;10.33;2.57;;;14.10;1.00;;;;;;6354211;22;20492;-82
2022/07/11 02:33:26;;;;;;;11.67;2.17;;;14.10;1.00;;;;;;6355042;22;20396;-83
2022/07/11 02:35:53;;;;;;;10.80;2.80;;;14.10;1.00;;;;;;6354440;22;20424;-82
2022/07/11 02:38:23;;;;;;;11.23;2.70;;;14.00;1.00;;;;;;6354871;22;20839;-82
2022/07/11 02:40:55;;;;;;;10.60;2.50;;;14.00;1.00;;;;;;6353294;22;20560;-83
2022/07/11 02:43:25;;;;;;;8.27;2.60;;;14.00;1.00;;;;;;6350097;22;21658;-82
2022/07/11 02:45:58;;;;;;;8.97;2.50;;;14.00;1.00;;;;;;6353011;22;20390;-82
2022/07/11 02:48:25;;;;;;;9.00;2.20;;;13.90;1.00;;;;;;6355003;22;20990;-80
2022/07/11 02:51:00;;;;;;;8.63;2.40;;;13.90;1.00;;;;;;6355574;22;20454;-80
2022/07/11 02:53:27;;;;;;;9.57;2.50;;;13.90;1.00;;;;;;6354742;22;20392;-81
2022/07/11 02:55:56;;;;;;;8.20;2.20;;;13.80;1.00;;;;;;6355630;22;20393;-82
2022/07/11 02:58:23;;;;;;;12.70;2.60;;;13.80;1.00;;;;;;6354402;22;20420;-81
2022/07/11 03:00:50;;;;;;;10.00;2.47;;;13.80;1.00;;;;;;6351912;22;20405;-82
2022/07/11 03:03:20;;;;;;;11.50;2.77;;;13.80;1.00;;;;;;6322436;22;20425;-82
2022/07/11 03:05:47;;;;;;;8.50;1.83;;;13.80;1.00;;;;;;6322143;22;20464;-82
2022/07/11 03:08:16;;;;;;;9.90;3.13;;;13.80;1.00;;;;;;6324736;22;20397;-81
2022/07/11 03:10:43;;;;;;;9.07;2.83;;;13.80;1.00;;;;;;6323498;22;20445;-82
2022/07/11 03:13:17;;;;;;;10.60;2.60;;;13.80;1.00;;;;;;6323011;22;20453;-82
2022/07/11 03:15:44;;;;;;;8.07;2.80;;;13.80;1.00;;;;;;6322402;22;20922;-83
2022/07/11 03:18:15;;;;;;;8.90;2.40;;;13.80;1.00;;;;;;6323048;22;20414;-81
2022/07/11 03:20:43;;;;;;;10.00;2.70;;;13.80;1.00;;;;;;6323328;22;20438;-83
2022/07/11 03:23:18;;;;;;;10.17;2.13;;;13.80;1.00;;;;;;6324463;22;20921;-83
2022/07/11 03:25:44;;;;;;;12.50;2.73;;;13.80;1.00;;;;;;6324627;22;20513;-83
2022/07/11 03:28:19;;;;;;;7.63;2.70;;;13.80;1.00;;;;;;6306951;22;20925;-83
2022/07/11 03:30:46;;;;;;;12.33;3.63;;;13.70;1.00;;;;;;6321405;22;20385;-83
2022/07/11 03:33:17;;;;;;;9.90;2.87;;;13.70;1.00;;;;;;6323138;22;20446;-83
2022/07/11 03:35:45;;;;;;;10.20;3.00;;;13.60;1.00;;;;;;6321937;22;20422;-81
2022/07/11 03:38:20;;;;;;;10.50;2.53;;;13.60;1.00;;;;;;6323328;22;20395;-82
2022/07/11 03:40:47;;;;;;;8.70;2.60;;;13.50;1.00;;;;;;6296445;22;20406;-81
2022/07/11 03:43:16;;;;;;;10.50;2.50;;;13.50;1.00;;;;;;6321598;22;20420;-80
2022/07/11 03:45:44;;;;;;;10.47;3.43;;;13.50;1.00;;;;;;6322799;22;20466;-80
2022/07/11 03:48:16;;;;;;;8.17;2.33;;;13.50;1.00;;;;;;6324857;22;20398;-83
2022/07/11 03:50:43;;;;;;;11.30;3.47;;;13.50;1.00;;;;;;6323970;22;20410;-81
2022/07/11 03:53:15;;;;;;;9.10;2.40;;;13.40;1.00;;;;;;6322387;22;20430;-82
2022/07/11 03:55:42;;;;;;;8.80;2.70;;;13.40;1.00;;;;;;6322576;22;20947;-81
2022/07/11 03:58:09;;;;;;;10.60;3.57;;;13.40;1.00;;;;;;6323222;22;20411;-81
2022/07/11 04:00:36;;;;;;;11.40;2.90;;;13.40;1.00;;;;;;6321446;22;20400;-82
2022/07/11 04:03:03;;;;;;;10.10;3.33;;;13.40;1.00;;;;;;6323041;22;20445;-83
2022/07/11 04:05:30;;;;;;;11.40;3.20;;;13.40;1.00;;;;;;6317557;22;20497;-83
2022/07/11 04:07:57;;;;;;;10.67;3.77;;;13.40;1.00;;;;;;6318439;22;20924;-83
2022/07/11 04:10:25;;;;;;;12.00;2.97;;;13.40;1.00;;;;;;6317502;22;20990;-82
2022/07/11 04:12:54;;;;;;;11.13;3.07;;;13.40;1.00;;;;;;6317290;22;20469;-82
2022/07/11 04:15:21;;;;;;;9.20;2.80;;;13.40;1.00;;;;;;6317758;22;20426;-83
2022/07/11 04:17:47;;;;;;;11.03;3.90;;;13.40;1.00;;;;;;6316611;22;20927;-81
2022/07/11 04:20:14;;;;;;;12.30;3.60;;;13.40;1.00;;;;;;6317987;22;20410;-82
2022/07/11 04:22:41;;;;;;;9.07;2.73;;;13.50;1.00;;;;;;6316241;22;20418;-82
2022/07/11 04:25:09;;;;;;;9.70;2.47;;;13.50;1.00;;;;;;6317851;22;20534;-82
2022/07/11 04:27:37;;;;;;;8.70;2.60;;;13.50;1.00;;;;;;6317200;22;20952;-82
2022/07/11 04:30:05;;;;;;;11.87;2.93;;;13.50;1.00;;;;;;6318310;22;20483;-82
2022/07/11 04:32:32;;;;;;;11.60;3.23;;;13.50;1.00;;;;;;6317293;22;20469;-82
2022/07/11 04:34:58;;;;;;;10.10;2.93;;;13.40;1.00;;;;;;6316969;22;20430;-81
2022/07/11 04:37:27;;;;;;;10.37;3.13;;;13.40;1.00;;;;;;6322035;22;20399;-82
2022/07/11 04:39:54;;;;;;;15.67;4.27;;;13.40;1.00;;;;;;6317991;22;20648;-82
2022/07/11 04:42:21;;;;;;;9.53;2.60;;;13.40;1.00;;;;;;6319326;22;20460;-81
2022/07/11 04:44:49;;;;;;;10.13;2.70;;;13.40;1.00;;;;;;6322675;22;20875;-82
2022/07/11 04:47:17;;;;;;;9.87;3.67;;;13.50;1.00;;;;;;6324708;22;20406;-82
2022/07/11 04:49:47;;;;;;;10.97;3.23;;;13.50;1.00;;;;;;6323312;22;20636;-82
2022/07/11 04:52:16;;;;;;;13.23;2.90;;;13.50;1.00;;;;;;6324087;22;20421;-82
2022/07/11 04:54:47;;;;;;;10.70;2.90;;;13.50;1.00;;;;;;6322550;22;20425;-82
2022/07/11 04:57:14;;;;;;;9.80;2.83;;;13.60;1.00;;;;;;6322679;22;20408;-83
2022/07/11 04:59:45;;;;;;;11.93;2.97;;;13.60;1.00;;;;;;6320753;22;20918;-83
2022/07/11 05:02:18;;;;;;;11.83;3.47;;;13.70;1.00;;;;;;6323957;22;20416;-83
2022/07/11 05:04:47;;;;;;;9.23;3.23;;;13.70;1.00;;;;;;6323383;22;20401;-82
2022/07/11 05:07:34;;;;;;;11.90;2.90;;;13.80;1.00;;;;;;6322126;22;20483;-82
2022/07/11 05:10:02;;;;;;;9.80;2.87;;;13.80;1.00;;;;;;6320634;22;20851;-83
2022/07/11 05:12:29;;;;;;;11.20;2.80;;;13.90;1.00;;;;;;6321813;22;21081;-82
2022/07/11 05:14:58;;;;;;;10.63;2.87;;;13.90;1.00;;;;;;6322049;22;20425;-83
2022/07/11 05:17:26;;;;;;;11.23;3.10;;;14.00;1.00;;;;;;6320068;22;20504;-82
2022/07/11 05:19:57;;;;;;;11.30;3.17;;;14.00;1.00;;;;;;6315979;22;21739;-82
2022/07/11 05:22:25;;;;;;;14.20;3.30;;;14.10;1.00;;;;;;6323640;22;20398;-82
2022/07/11 05:25:02;;;;;;;11.50;3.37;;;14.10;1.00;;;;;;6321478;22;20406;-82
2022/07/11 05:27:29;;;;;;;9.87;2.63;;;14.10;1.00;;;;;;6321523;22;20489;-83
2022/07/11 05:29:57;;;;;;;8.70;2.83;;;14.10;1.00;;;;;;6320651;22;20393;-83
2022/07/11 05:32:23;;;;;;;8.90;2.80;;;14.30;1.00;;;;;;6321731;22;20890;-83
2022/07/11 05:34:58;;;;;;;8.30;2.57;;;14.30;1.00;;;;;;6319778;22;20429;-82
2022/07/11 05:37:25;;;;;;;14.47;3.87;;;14.40;1.00;;;;;;6323971;22;20968;-83
2022/07/11 05:39:56;;;;;;;13.27;2.80;;;14.50;1.00;;;;;;6320435;22;20785;-79
2022/07/11 05:42:23;;;;;;;13.60;2.90;;;14.60;1.00;;;;;;6322617;22;20537;-81
2022/07/11 05:44:55;;;;;;;9.93;3.20;;;14.60;1.00;;;;;;6321247;22;20422;-83
2022/07/11 05:47:23;;;;;;;13.63;2.83;;;14.70;1.00;;;;;;6324297;22;20964;-84
2022/07/11 05:49:57;;;;;;;9.80;3.37;;;14.70;1.00;;;;;;6321832;22;20438;-83
2022/07/11 05:52:24;;;;;;;12.93;3.23;;;14.90;1.00;;;;;;6323761;22;21164;-83
2022/07/11 05:54:55;;;;;;;9.50;2.67;;;14.90;1.00;;;;;;6322338;22;20456;-84
2022/07/11 05:57:22;;;;;;;8.90;2.77;;;15.00;1.00;;;;;;6323864;22;20905;-82
2022/07/11 05:59:49;;;;;;;11.20;2.97;;;15.00;1.00;;;;;;6322795;22;20426;-84
2022/07/11 06:02:18;;;;;;;8.67;3.10;;;15.10;1.00;;;;;;6323455;22;20379;-82
2022/07/11 06:04:45;;;;;;;10.47;2.67;;;15.00;1.00;;;;;;6321515;22;20410;-82
2022/07/11 06:09:58;;;;;;;11.20;3.60;;;15.10;1.00;;;;;;6312645;22;20422;-83
2022/07/11 06:12:25;;;;;;;11.33;2.80;;;15.10;1.00;;;;;;6323893;22;20934;-82
2022/07/11 06:14:57;;;;;;;9.03;3.27;;;15.30;1.00;;;;;;6323004;22;20398;-83
2022/07/11 06:17:23;;;;;;;8.77;2.60;;;15.30;1.00;;;;;;6323434;22;20853;-82
2022/07/11 06:19:55;;;;;;;10.67;2.70;;;15.40;1.00;;;;;;6321326;22;20512;-82
2022/07/11 06:22:24;;;;;;;12.30;3.00;;;15.60;1.00;;;;;;6325553;22;20720;-82
2022/07/11 06:24:52;;;;;;;11.60;3.00;;;15.70;1.00;;;;;;6323466;22;20418;-83
2022/07/11 06:27:18;;;;;;;12.33;3.40;;;15.80;1.00;;;;;;6325876;22;20422;-82
2022/07/11 06:29:45;;;;;;;8.27;2.40;;;15.90;1.00;;;;;;6322921;22;21275;-84
2022/07/11 06:32:20;;;;;;;10.63;2.97;;;16.00;1.00;;;;;;6310267;22;20474;-83
2022/07/11 06:34:47;;;;;;;9.93;3.27;;;16.00;1.00;;;;;;6324307;22;21229;-82
2022/07/11 06:37:17;;;;;;;11.57;2.90;;;16.10;1.00;;;;;;6324960;22;20410;-83
2022/07/11 06:39:45;;;;;;;8.17;2.50;;;16.20;1.00;;;;;;6324522;22;20798;-83
2022/07/11 06:42:20;;;;;;;10.27;3.17;;;16.20;1.00;;;;;;6325651;22;20399;-83
2022/07/11 06:44:46;;;;;;;10.50;3.10;;;16.20;1.00;;;;;;6323147;22;20638;-81
2022/07/11 06:47:16;;;;;;;11.43;2.93;;;16.30;1.00;;;;;;6325506;22;20421;-82
2022/07/11 06:49:44;;;;;;;9.03;2.63;;;16.30;1.00;;;;;;6290918;22;20442;-83
2022/07/11 06:52:11;;;;;;;13.93;3.30;;;16.40;1.00;;;;;;6318691;22;20430;-84
2022/07/11 06:54:38;;;;;;;13.10;3.40;;;16.40;1.00;;;;;;6325475;22;20606;-81
2022/07/11 06:57:07;;;;;;;9.43;2.30;;;16.50;1.00;;;;;;6309099;22;20450;-82
2022/07/11 06:59:37;;;;;;;10.63;3.20;;;16.60;1.00;;;;;;6309032;22;20414;-83
2022/07/11 07:02:04;;;;;;;9.13;3.03;;;16.70;1.00;;;;;;6327748;22;20915;-82
2022/07/11 07:04:35;;;;;;;12.57;2.97;;;16.80;1.00;;;;;;6324825;22;20430;-82
2022/07/11 07:07:03;;;;;;;9.93;2.63;;;16.80;1.00;;;;;;6325238;22;20444;-82
2022/07/11 07:09:33;;;;;;;8.60;4.20;;;16.90;1.00;;;;;;6325287;22;20422;-83
2022/07/11 07:12:01;;;;;;;10.43;2.93;;;16.90;1.00;;;;;;6325873;22;20429;-83
2022/07/11 07:14:33;;;;;;;10.03;3.30;;;16.90;1.00;;;;;;6322788;22;20445;-81
2022/07/11 07:17:01;;;;;;;10.70;2.73;;;17.00;1.00;;;;;;6324287;22;20457;-83
2022/07/11 07:19:28;;;;;;;8.53;2.80;;;17.00;1.00;;;;;;6324121;22;20442;-83
2022/07/11 07:21:57;;;;;;;9.23;2.80;;;17.10;1.00;;;;;;6326182;22;20374;-82
2022/07/11 07:24:26;;;;;;;11.90;3.07;;;17.10;1.00;;;;;;6325448;22;20548;-82
2022/07/11 07:27:00;;;;;;;10.57;2.50;;;17.10;1.00;;;;;;6324145;22;20410;-83
2022/07/11 07:29:29;;;;;;;8.00;2.33;;;17.10;1.00;;;;;;6322566;22;20413;-82
2022/07/11 07:31:58;;;;;;;8.03;2.30;;;17.30;1.00;;;;;;6325117;22;20390;-83
2022/07/11 07:34:24;;;;;;;8.47;2.40;;;17.50;1.00;;;;;;6323314;22;20506;-82
2022/07/11 07:36:56;;;;;;;9.60;2.60;;;17.70;1.00;;;;;;6322424;22;20825;-82
2022/07/11 07:39:23;;;;;;;10.37;2.80;;;17.90;1.00;;;;;;6324137;22;20473;-83
2022/07/11 07:41:50;;;;;;;11.57;2.87;;;18.10;1.00;;;;;;6323640;22;20402;-83
2022/07/11 07:44:18;;;;;;;9.10;2.40;;;18.20;1.00;;;;;;6325870;22;20405;-82
2022/07/11 07:46:46;;;;;;;10.53;2.43;;;18.40;1.00;;;;;;6323191;22;20406;-84
2022/07/11 07:49:17;;;;;;;8.63;2.53;;;18.60;1.00;;;;;;6324455;22;20451;-83
2022/07/11 07:51:44;;;;;;;9.20;2.43;;;18.90;1.00;;;;;;6324127;22;20807;-80
2022/07/11 07:54:16;;;;;;;7.80;2.50;;;19.00;1.00;;;;;;6325051;22;20402;-81
2022/07/11 07:56:43;;;;;;;10.10;2.63;;;19.00;1.00;;;;;;6324738;22;21012;-83
2022/07/11 07:59:10;;;;;;;10.20;4.67;;;19.00;1.00;;;;;;6324598;22;20408;-83
2022/07/11 08:01:40;;;;;;;7.60;2.30;;;19.00;1.00;;;;;;6326290;22;20403;-81
2022/07/11 08:04:10;;;;;;;9.40;2.63;;;19.10;1.00;;;;;;6324251;22;20430;-82
2022/07/11 08:06:38;;;;;;;10.83;2.40;;;19.10;1.00;;;;;;6323675;22;20391;-84
2022/07/11 08:09:06;;;;;;;9.80;2.67;;;19.00;1.00;;;;;;6323933;22;20414;-81
2022/07/11 08:11:37;;;;;;;8.97;2.13;;;19.10;1.00;;;;;;6323537;22;20374;-83
2022/07/11 08:14:07;;;;;;;9.13;2.20;;;19.10;1.00;;;;;;6324853;22;20890;-83
2022/07/11 08:16:38;;;;;;;7.60;2.23;;;19.10;1.00;;;;;;6325168;22;20394;-82
2022/07/11 08:19:09;;;;;;;9.30;2.27;;;19.30;1.00;;;;;;6326513;22;20921;-84
2022/07/11 08:21:37;;;;;;;11.00;3.50;;;19.40;1.00;;;;;;6323453;22;20426;-83
2022/07/11 08:24:05;;;;;;;6.57;2.00;;;19.40;1.00;;;;;;6324310;22;20426;-82
2022/07/11 08:26:37;;;;;;;8.50;2.90;;;19.40;1.00;;;;;;6323628;22;20374;-81
2022/07/11 08:29:07;;;;;;;9.20;2.57;;;19.40;1.00;;;;;;6326719;22;20847;-83
2022/07/11 08:31:37;;;;;;;11.13;3.17;;;19.60;1.00;;;;;;6324005;22;20438;-84
2022/07/11 08:34:04;;;;;;;10.30;3.17;;;19.70;1.00;;;;;;6324754;22;20518;-83
2022/07/11 08:36:37;;;;;;;9.53;2.43;;;19.80;1.00;;;;;;6321648;22;20394;-82
2022/07/11 08:39:08;;;;;;;9.83;2.93;;;19.90;1.00;;;;;;6322293;22;20398;-83
2022/07/11 08:41:50;;;;;;;6.57;2.03;;;19.90;1.00;;;;;;6322738;22;20414;-82
2022/07/11 08:44:18;;;;;;;9.33;2.67;;;20.00;1.00;;;;;;6323143;22;20414;-82
2022/07/11 08:46:49;;;;;;;8.73;2.70;;;20.00;1.00;;;;;;6320530;22;20442;-82
2022/07/11 08:49:19;;;;;;;11.57;3.07;;;19.90;1.00;;;;;;6324886;22;20421;-82
2022/07/11 08:51:49;;;;;;;11.50;2.50;;;20.00;1.00;;;;;;6319279;22;20398;-82
2022/07/11 08:54:18;;;;;;;9.47;2.10;;;20.10;1.00;;;;;;6318324;22;20480;-83
2022/07/11 08:56:49;;;;;;;10.17;3.00;;;20.20;1.00;;;;;;6324102;22;20390;-81
2022/07/11 08:59:19;;;;;;;7.50;1.90;;;20.40;1.00;;;;;;6319337;22;20577;-83
2022/07/11 09:01:52;;;;;;;8.00;2.00;;;20.50;1.00;;;;;;6324695;22;20422;-83
2022/07/11 09:04:20;;;;;;;6.77;1.80;;;20.50;1.00;;;;;;6313985;22;20461;-83
2022/07/11 09:06:49;;;;;;;10.60;2.40;;;20.50;1.00;;;;;;6319190;22;20422;-83
2022/07/11 09:09:17;;;;;;;7.90;2.00;;;20.60;1.00;;;;;;6317729;22;20418;-83
2022/07/11 09:11:56;;;;;;;6.40;1.67;;;20.80;1.00;;;;;;6323665;22;20429;-81
2022/07/11 09:14:28;;;;;;;7.10;1.87;;;21.00;1.00;;;;;;6319044;22;20440;-83
2022/07/11 09:16:59;;;;;;;7.17;2.00;;;21.30;1.00;;;;;;6324260;22;20472;-85
2022/07/11 09:19:29;;;;;;;8.27;2.30;;;21.50;1.00;;;;;;6324753;22;20418;-83
2022/07/11 09:25:31;;;;;;;7.50;2.10;;;22.20;1.00;;;;;;6199853;23;20445;-84
2022/07/11 09:28:04;;;;;;;7.83;1.70;;;22.50;1.00;;;;;;6200203;23;20472;-83
2022/07/11 09:30:35;;;;;;;10.70;2.20;;;22.60;1.00;;;;;;6285992;22;20429;-82
2022/07/11 09:33:09;;;;;;;7.60;2.17;;;22.80;1.00;;;;;;6327089;22;20492;-83
2022/07/11 09:35:38;;;;;;;6.23;1.53;;;22.80;1.00;;;;;;6323478;22;20773;-83
2022/07/11 09:40:58;;;;;;;6.10;1.40;;;22.90;1.00;;;;;;6290538;22;20596;-83
2022/07/11 09:43:27;;;;;;;6.30;1.67;;;23.50;1.00;;;;;;6309544;22;20571;-84
2022/07/11 09:46:07;;;;;;;5.30;1.60;;;24.90;1.00;;;;;;6314409;22;20426;-83
2022/07/11 09:48:36;;;;;;;6.67;1.77;;;25.90;1.00;;;;;;6325000;22;20468;-83
2022/07/11 09:51:20;;;;;;;7.33;1.60;;;27.50;1.00;;;;;;6316623;22;20409;-83
2022/07/11 09:54:06;;;;;;;9.00;1.90;;;27.80;1.00;;;;;;6320692;22;20408;-83
2022/07/11 09:56:40;;;;;;;8.70;2.27;;;26.50;1.00;;;;;;6323467;22;20469;-83
2022/07/11 09:59:08;;;;;;;6.83;1.87;;;25.70;1.00;;;;;;6320975;22;20394;-85
2022/07/11 10:01:35;;;;;;;6.60;1.30;;;26.10;1.00;;;;;;6285901;22;20419;-83
2022/07/11 10:04:05;;;;;;;9.67;4.20;;;27.50;1.00;;;;;;6287637;22;20426;-83
2022/07/11 10:06:32;;;;;;;6.17;1.80;;;27.50;1.00;;;;;;6287286;22;20502;-84
2022/07/11 10:09:01;;;;;;;5.80;1.90;;;27.20;1.00;;;;;;6288398;22;20423;-84
2022/07/11 10:11:28;;;;;;;5.77;1.90;;;28.40;1.00;;;;;;6289213;22;20977;-83
2022/07/11 10:13:56;;;;;;;5.37;1.63;;;29.70;1.00;;;;;;6273555;22;20806;-84
2022/07/11 10:16:28;;;;;;;7.23;2.00;;;29.20;1.00;;;;;;6289760;22;20526;-83
2022/07/11 10:19:10;;;;;;;4.60;1.30;;;27.90;1.00;;;;;;6274969;22;20391;-82
2022/07/11 10:21:43;;;;;;;7.40;4.93;;;26.90;1.00;;;;;;6289458;22;21262;-83
2022/07/11 10:24:24;;;;;;;5.70;1.23;;;27.60;1.00;;;;;;6289419;22;20959;-83
2022/07/11 10:27:00;;;;;;;5.30;1.40;;;29.20;1.00;;;;;;6287769;22;20477;-84
2022/07/11 10:29:53;;;;;;;4.60;1.40;;;30.80;1.00;;;;;;6287597;22;20418;-83
2022/07/11 10:32:27;;;;;;;3.80;0.97;;;32.20;1.00;;;;;;6291238;22;20415;-85
2022/07/11 10:35:17;;;;;;;6.60;1.80;;;33.10;1.00;;;;;;6287751;22;20418;-82
2022/07/11 10:37:49;;;;;;;4.80;1.37;;;33.50;1.00;;;;;;6288330;22;20926;-83
2022/07/11 10:40:48;;;;;;;4.80;1.20;;;34.20;1.00;;;;;;6291459;22;20492;-83
2022/07/11 10:43:36;;;;;;;4.57;1.67;;;34.60;1.00;;;;;;6292632;22;20452;-85
2022/07/11 10:46:04;;;;;;;4.73;1.17;;;34.80;1.00;;;;;;6290759;22;20482;-84
2022/07/11 10:49:00;;;;;;;4.70;1.13;;;35.10;1.00;;;;;;6291995;22;20474;-85
2022/07/11 10:51:43;;;;;;;3.87;1.07;;;35.30;1.00;;;;;;6294605;22;20419;-84
2022/07/11 10:54:35;;;;;;;3.60;1.20;;;35.60;1.00;;;;;;6294042;22;20518;-84
2022/07/11 10:57:15;;;;;;;4.23;1.40;;;36.40;1.00;;;;;;6292342;22;20446;-84
2022/07/11 10:59:59;;;;;;;4.63;1.40;;;36.50;1.00;;;;;;6299808;22;20450;-83
2022/07/11 11:02:26;;;;;;;5.03;1.33;;;34.70;1.00;;;;;;6324519;22;20414;-85
2022/07/11 11:05:01;;;;;;;3.60;0.93;;;32.40;1.00;;;;;;6325731;22;20399;-85
2022/07/11 11:07:37;;;;;;;6.80;1.57;;;32.10;1.00;;;;;;6323864;22;20391;-84
2022/07/11 11:10:54;;;;;;;6.63;1.93;;;33.10;1.00;;;;;;6324770;22;20426;-85
2022/07/11 11:13:23;;;;;;;4.57;1.23;;;34.60;1.00;;;;;;6323613;22;20410;-84
2022/07/11 11:15:57;;;;;;;3.40;1.07;;;35.10;1.00;;;;;;6323647;22;20415;-85
2022/07/11 11:18:36;;;;;;;4.00;1.20;;;34.00;1.00;;;;;;6325138;22;20468;-83
2022/07/11 11:21:34;;;;;;;4.77;1.30;;;33.80;1.00;;;;;;6322425;22;20406;-85
2022/07/11 11:24:08;;;;;;;4.23;1.20;;;33.60;1.00;;;;;;6323456;22;20494;-84
2022/07/11 11:26:53;;;;;;;3.77;1.40;;;33.00;1.00;;;;;;6324626;22;20418;-83
2022/07/11 11:29:28;;;;;;;3.40;1.10;;;34.10;1.00;;;;;;6325103;22;21103;-83
2022/07/11 11:31:58;;;;;;;3.63;0.97;;;35.70;1.00;;;;;;6323988;22;20405;-84
2022/07/11 11:34:27;;;;;;;4.77;1.10;;;36.70;1.00;;;;;;6324678;22;20484;-84
2022/07/11 11:37:00;;;;;;;5.20;1.40;;;37.10;1.00;;;;;;6330287;22;20394;-83
2022/07/11 11:39:33;;;;;;;4.37;1.60;;;35.80;1.00;;;;;;6322730;22;20445;-83
2022/07/11 11:42:15;;;;;;;6.70;3.67;;;33.60;1.00;;;;;;6320550;22;20886;-84
2022/07/11 11:44:59;;;;;;;4.60;1.87;;;33.00;1.00;;;;;;6322625;22;20506;-84
2022/07/11 11:47:26;;;;;;;3.43;1.23;;;34.80;1.00;;;;;;6323581;22;20910;-85
2022/07/11 11:49:56;;;;;;;3.43;1.20;;;35.50;1.00;;;;;;6323236;22;20446;-84
2022/07/11 11:52:24;;;;;;;4.10;0.80;;;36.30;1.00;;;;;;6324187;22;20517;-84
2022/07/11 11:54:58;;;;;;;4.30;1.47;;;36.50;1.00;;;;;;6322787;22;20414;-83
2022/07/11 11:57:27;;;;;;;3.30;1.40;;;35.80;1.00;;;;;;6324207;22;20422;-83
2022/07/11 11:59:58;;;;;;;4.50;1.40;;;36.10;1.00;;;;;;6323351;22;20430;-83
2022/07/11 12:02:28;;;;;;;3.70;1.30;;;36.60;1.00;;;;;;6323787;22;20495;-83
2022/07/11 12:04:57;;;;;;;3.40;1.43;;;36.50;1.00;;;;;;6323507;22;20378;-83
2022/07/11 12:07:30;;;;;;;3.83;1.63;;;36.50;1.00;;;;;;6319335;22;20460;-82
2022/07/11 12:10:04;;;;;;;3.07;0.90;;;36.70;1.00;;;;;;6321858;22;20759;-83
2022/07/11 12:12:47;;;;;;;3.17;1.13;;;36.60;1.00;;;;;;6323712;22;20434;-84
2022/07/11 12:15:31;;;;;;;4.97;1.20;;;36.80;1.00;;;;;;6325677;22;20980;-82
2022/07/11 12:18:03;;;;;;;2.97;0.80;;;38.20;1.00;;;;;;6325105;22;20906;-84
2022/07/11 12:20:44;;;;;;;4.90;2.70;;;39.20;1.00;;;;;;6323034;22;20941;-84
2022/07/11 12:23:13;;;;;;;3.07;0.90;;;38.80;1.00;;;;;;6324384;22;20406;-84
2022/07/11 12:25:44;;;;;;;4.00;1.80;;;38.70;1.00;;;;;;6322583;22;20383;-84
2022/07/11 12:28:11;;;;;;;4.07;1.70;;;36.80;1.00;;;;;;6324351;22;20421;-84
2022/07/11 12:30:54;;;;;;;3.93;1.00;;;34.70;1.00;;;;;;6323970;22;20501;-82
2022/07/11 12:33:24;;;;;;;4.23;1.50;;;32.80;1.00;;;;;;6325706;22;20390;-85
2022/07/11 12:36:04;;;;;;;3.77;1.50;;;31.30;1.00;;;;;;6324172;22;20391;-84
2022/07/11 12:38:51;;;;;;;3.10;1.00;;;31.50;1.00;;;;;;6323793;22;20893;-84
2022/07/11 12:41:21;;;;;;;4.37;1.30;;;33.60;1.00;;;;;;6325062;22;20426;-83
2022/07/11 12:46:39;;;;;;;3.23;1.00;;;37.70;1.00;;;;;;6322885;22;20445;-83
2022/07/11 12:49:08;;;;;;;5.60;2.73;;;37.70;1.00;;;;;;6324077;22;21013;-84
2022/07/11 12:51:39;;;;;;;3.30;1.10;;;36.30;1.00;;;;;;6321802;22;20462;-84
2022/07/11 12:54:08;;;;;;;3.67;1.00;;;34.70;1.00;;;;;;6321457;22;20387;-83
2022/07/11 12:56:35;;;;;;;4.00;1.33;;;34.30;1.00;;;;;;6318391;22;20430;-83
2022/07/11 12:59:04;;;;;;;4.10;1.47;;;34.00;1.00;;;;;;6277229;22;20425;-83
2022/07/11 13:01:32;;;;;;;5.20;1.77;;;33.00;1.00;;;;;;6316690;22;20405;-84
2022/07/11 13:04:01;;;;;;;4.63;1.70;;;32.10;1.00;;;;;;6319478;22;20430;-83
2022/07/11 13:09:15;;;;;;;5.17;2.03;;;33.40;1.00;;;;;;6320279;22;20440;-84
2022/07/11 13:11:42;;;;;;;2.93;0.97;;;36.00;1.00;;;;;;6316142;22;20386;-85
2022/07/11 13:15:08;;;;;;;3.50;1.20;;;37.70;1.00;;;;;;6318470;22;20433;-85
2022/07/11 13:16:56;;;;;;;2.93;0.80;;;38.00;1.00;;;;;;6318599;22;20394;-84
2022/07/11 13:19:24;;;;;;;3.43;1.17;;;37.90;1.00;;;;;;6324393;22;20402;-85
2022/07/11 13:21:53;;;;;;;4.30;1.10;;;36.70;1.00;;;;;;6324276;22;20386;-85
2022/07/11 13:24:20;;;;;;;3.53;1.30;;;35.20;1.00;;;;;;6322666;22;20465;-85
2022/07/11 13:26:47;;;;;;;3.50;1.30;;;33.90;1.00;;;;;;6317942;22;21654;-82